Time;durP1;ratioP1;P1;durP2;ratioP2;P2;SDS_P1;SDS_P2;PMS_P1;PMS_P2;Temp;Humidity;BMP_temperature;BMP_pressure;BME280_temperature;BME280_humidity;BME280_pressure;Samples;Min_cycle;Max_cycle;Signal;HPM_P1;HPM_P2
2023/05/13 00:01:37;;;;;;;7.47;5.37;;;;;;;13.20;100.00;102320.41;5015399;28;20214;-79
2023/05/13 00:04:05;;;;;;;10.13;4.90;;;;;;;13.09;100.00;102329.47;5029528;28;20727;-80
2023/05/13 00:06:31;;;;;;;8.23;5.23;;;;;;;13.05;100.00;102326.72;5037200;28;20695;-79
2023/05/13 00:08:57;;;;;;;7.33;5.03;;;;;;;13.03;100.00;102326.69;5025347;28;20577;-79
2023/05/13 00:11:23;;;;;;;8.17;5.13;;;;;;;13.00;100.00;102331.75;5020545;28;20191;-79
2023/05/13 00:13:48;;;;;;;7.33;5.20;;;;;;;13.03;100.00;102325.81;5036260;28;20264;-79
2023/05/13 00:16:14;;;;;;;6.37;4.97;;;;;;;12.90;100.00;102338.22;5041163;28;20252;-80
2023/05/13 00:18:40;;;;;;;7.43;5.50;;;;;;;12.93;100.00;102334.88;5043569;28;20198;-80
2023/05/13 00:21:05;;;;;;;6.63;4.97;;;;;;;12.80;100.00;102343.00;5037407;28;20198;-79
2023/05/13 00:23:31;;;;;;;7.60;5.43;;;;;;;12.84;100.00;102338.03;5025202;28;20200;-79
2023/05/13 00:25:57;;;;;;;8.87;5.70;;;;;;;12.82;100.00;102329.38;5039246;28;20705;-79
2023/05/13 00:28:23;;;;;;;6.70;5.20;;;;;;;12.79;100.00;102344.72;5039520;28;20281;-80
2023/05/13 00:30:48;;;;;;;8.07;5.70;;;;;;;12.74;100.00;102355.63;5037420;28;20702;-79
2023/05/13 00:33:14;;;;;;;8.90;5.70;;;;;;;12.65;100.00;102351.06;5019567;28;20615;-79
2023/05/13 00:35:40;;;;;;;7.93;5.03;;;;;;;12.71;100.00;102346.13;5019746;28;20228;-79
2023/05/13 00:38:06;;;;;;;8.57;5.93;;;;;;;12.59;100.00;102365.41;5018758;28;20222;-80
2023/05/13 00:40:35;;;;;;;8.27;5.70;;;;;;;12.58;100.00;102358.50;5019629;28;20201;-79
2023/05/13 00:43:01;;;;;;;8.63;5.43;;;;;;;12.56;100.00;102362.69;5016602;28;20277;-79
2023/05/13 00:45:26;;;;;;;7.07;5.20;;;;;;;12.58;100.00;102355.94;5036305;28;20675;-79
2023/05/13 00:47:52;;;;;;;6.57;5.00;;;;;;;12.47;100.00;102367.50;5016918;28;20305;-80
2023/05/13 00:50:18;;;;;;;6.23;5.20;;;;;;;12.47;100.00;102373.53;5035230;28;20213;-79
2023/05/13 00:52:43;;;;;;;7.33;5.30;;;;;;;12.46;100.00;102360.63;5035758;28;20213;-79
2023/05/13 00:55:10;;;;;;;7.17;5.03;;;;;;;12.43;100.00;102357.94;5034946;28;20666;-80
2023/05/13 00:57:37;;;;;;;6.53;5.70;;;;;;;12.39;100.00;102372.38;5031606;28;20236;-79
2023/05/13 01:00:04;;;;;;;7.43;5.33;;;;;;;12.40;100.00;102363.84;5033661;28;20194;-79
2023/05/13 01:02:52;;;;;;;8.60;5.97;;;;;;;12.33;100.00;102378.97;5034352;28;20202;-79
2023/05/13 01:05:55;;;;;;;7.10;5.60;;;;;;;12.34;100.00;102366.19;5016515;28;20262;-80
2023/05/13 01:08:39;;;;;;;7.30;5.90;;;;;;;12.21;100.00;102381.97;5019108;28;20186;-80
2023/05/13 01:11:14;;;;;;;8.07;5.77;;;;;;;12.15;100.00;102380.84;5034918;28;20208;-79
2023/05/13 01:13:43;;;;;;;8.17;5.80;;;;;;;12.16;100.00;102380.06;5019886;28;20209;-79
2023/05/13 01:16:19;;;;;;;8.67;5.30;;;;;;;12.16;100.00;102372.38;5037474;28;20643;-79
2023/05/13 01:18:55;;;;;;;8.70;5.53;;;;;;;12.12;100.00;102378.19;5020935;28;20564;-79
2023/05/13 01:21:27;;;;;;;9.33;5.90;;;;;;;12.06;100.00;102377.94;5020326;28;20194;-79
2023/05/13 01:23:53;;;;;;;8.23;5.50;;;;;;;12.03;100.00;102378.72;5023273;28;20217;-80
2023/05/13 01:26:20;;;;;;;8.60;6.27;;;;;;;11.96;100.00;102387.00;5026542;28;20659;-80
2023/05/13 01:28:46;;;;;;;6.70;5.60;;;;;;;11.84;100.00;102404.50;5042628;28;20245;-80
2023/05/13 01:31:13;;;;;;;8.57;6.03;;;;;;;11.85;100.00;102390.81;5024784;28;20214;-80
2023/05/13 01:33:41;;;;;;;7.07;5.80;;;;;;;11.84;100.00;102395.94;5040372;28;20285;-80
2023/05/13 01:36:07;;;;;;;8.43;6.27;;;;;;;11.86;100.00;102381.44;5026198;28;20229;-80
2023/05/13 01:38:35;;;;;;;9.57;6.50;;;;;;;11.79;100.00;102395.72;5020770;28;20659;-80
2023/05/13 01:41:01;;;;;;;7.60;5.40;;;;;;;11.79;100.00;102382.91;5021139;28;20195;-79
2023/05/13 01:43:29;;;;;;;9.07;5.87;;;;;;;11.72;100.00;102378.38;5023206;28;20186;-79
2023/05/13 01:45:55;;;;;;;8.77;6.20;;;;;;;11.67;100.00;102390.13;5038463;28;20236;-80
2023/05/13 01:48:21;;;;;;;8.67;6.07;;;;;;;11.62;100.00;102391.63;5037436;28;20221;-79
2023/05/13 01:50:47;;;;;;;7.90;5.93;;;;;;;11.59;100.00;102388.94;5020058;28;20190;-81
2023/05/13 01:53:13;;;;;;;9.10;6.57;;;;;;;11.56;100.00;102391.34;5036942;28;20198;-79
2023/05/13 01:55:38;;;;;;;9.40;6.43;;;;;;;11.51;100.00;102392.84;5036550;28;20269;-81
2023/05/13 01:58:04;;;;;;;8.67;6.30;;;;;;;11.47;100.00;102390.13;5036726;28;20212;-80
2023/05/13 02:00:30;;;;;;;8.27;6.27;;;;;;;11.48;100.00;102371.34;5023767;28;20711;-79
2023/05/13 02:02:55;;;;;;;10.37;6.47;;;;;;;11.42;100.00;102371.97;5024769;28;20205;-79
2023/05/13 02:05:22;;;;;;;8.57;6.27;;;;;;;11.34;100.00;102373.34;5024833;28;20198;-80
2023/05/13 02:07:47;;;;;;;7.73;6.70;;;;;;;11.28;100.00;102369.63;5037773;28;20245;-80
2023/05/13 02:10:13;;;;;;;9.33;6.93;;;;;;;11.29;100.00;102358.59;5014598;28;20194;-80
2023/05/13 02:12:38;;;;;;;9.00;6.60;;;;;;;11.20;100.00;102356.50;5030516;28;20225;-80
2023/05/13 02:15:04;;;;;;;7.97;6.80;;;;;;;11.18;100.00;102349.56;5027774;28;20281;-79
2023/05/13 02:17:30;;;;;;;9.97;7.00;;;;;;;11.16;100.00;102330.69;5011779;28;20749;-79
2023/05/13 02:19:55;;;;;;;9.97;7.23;;;;;;;11.19;100.00;102315.41;5030455;28;20209;-80
2023/05/13 02:22:21;;;;;;;8.27;7.47;;;;;;;11.11;100.00;102306.56;5029939;28;20193;-79
2023/05/13 02:24:46;;;;;;;7.30;6.20;;;;;;;11.08;100.00;102293.63;5011721;28;20217;-78
2023/05/13 02:29:46;;;;;;;7.97;6.80;;;;;;;11.13;100.00;102264.78;5025242;28;20311;-80
2023/05/13 02:32:12;;;;;;;9.57;7.00;;;;;;;11.12;100.00;102270.75;5018540;28;20210;-79
2023/05/13 02:34:37;;;;;;;9.70;7.50;;;;;;;11.14;100.00;102266.53;5004104;28;20206;-80
2023/05/13 02:37:04;;;;;;;9.77;7.10;;;;;;;11.05;100.00;102267.84;4996363;28;20234;-80
2023/05/13 02:39:30;;;;;;;8.83;7.20;;;;;;;11.05;100.00;102268.72;5019708;28;20186;-78
2023/05/13 02:41:58;;;;;;;8.73;7.73;;;;;;;11.01;100.00;102261.72;5000495;28;20712;-77
2023/05/13 02:44:27;;;;;;;12.20;7.03;;;;;;;11.00;100.00;102262.56;5008119;28;20285;-78
2023/05/13 02:46:52;;;;;;;10.77;8.13;;;;;;;10.95;100.00;102258.94;5022140;28;20278;-78
2023/05/13 02:49:18;;;;;;;13.53;8.00;;;;;;;10.92;100.00;102263.06;5018861;28;20187;-78
2023/05/13 02:51:44;;;;;;;10.37;7.77;;;;;;;10.93;100.00;102259.69;5016756;28;20210;-78
2023/05/13 02:54:09;;;;;;;14.17;8.70;;;;;;;10.91;100.00;102254.50;5017023;28;20198;-78
2023/05/13 02:56:35;;;;;;;10.83;8.17;;;;;;;10.93;100.00;102250.28;5004015;28;20264;-78
2023/05/13 02:59:00;;;;;;;10.93;8.83;;;;;;;10.86;100.00;102249.97;5020664;28;20303;-79
2023/05/13 03:01:26;;;;;;;11.83;8.27;;;;;;;10.86;100.00;102248.31;5013644;28;20226;-77
2023/05/13 03:03:52;;;;;;;10.07;8.43;;;;;;;10.79;100.00;102256.53;5002035;28;20225;-79
2023/05/13 03:06:17;;;;;;;11.27;8.20;;;;;;;10.77;100.00;102250.50;4999318;28;20284;-76
2023/05/13 03:08:43;;;;;;;11.73;9.20;;;;;;;10.76;100.00;102248.75;5000826;28;20195;-78
2023/05/13 03:11:08;;;;;;;11.57;8.73;;;;;;;10.75;100.00;102252.13;5016541;28;20311;-77
2023/05/13 03:13:33;;;;;;;12.03;9.77;;;;;;;10.74;100.00;102250.34;5024288;28;20189;-78
2023/05/13 03:15:59;;;;;;;12.17;9.10;;;;;;;10.79;100.00;102248.84;5023179;28;20198;-78
2023/05/13 03:18:24;;;;;;;10.50;9.30;;;;;;;10.83;100.00;102258.41;5004746;28;20211;-79
2023/05/13 03:20:50;;;;;;;15.07;9.97;;;;;;;10.77;100.00;102254.72;5003871;28;20205;-81
2023/05/13 03:23:17;;;;;;;12.77;9.10;;;;;;;10.75;100.00;102254.69;5005838;28;20198;-78
2023/05/13 03:25:45;;;;;;;11.10;9.90;;;;;;;10.72;100.00;102254.56;4993028;28;20805;-79
2023/05/13 03:28:11;;;;;;;13.80;9.57;;;;;;;10.79;100.00;102253.97;4996670;28;20206;-79
2023/05/13 03:30:43;;;;;;;13.00;10.50;;;;;;;10.68;100.00;102259.47;4996433;28;20281;-79
2023/05/13 03:33:13;;;;;;;13.47;10.20;;;;;;;10.70;100.00;102256.16;5015732;28;20298;-80
2023/05/13 03:35:39;;;;;;;11.83;8.97;;;;;;;10.71;100.00;102251.94;4997919;28;20662;-79
2023/05/13 03:38:05;;;;;;;12.00;10.60;;;;;;;10.70;100.00;102255.31;5014316;28;20210;-78
2023/05/13 03:40:33;;;;;;;15.27;10.03;;;;;;;10.70;100.00;102263.84;5021201;28;20190;-78
2023/05/13 03:42:59;;;;;;;14.80;10.07;;;;;;;10.60;100.00;102255.75;5002889;28;20821;-76
2023/05/13 03:45:24;;;;;;;11.37;10.17;;;;;;;10.61;100.00;102260.94;5021445;28;20199;-78
2023/05/13 03:47:53;;;;;;;12.37;9.90;;;;;;;10.56;100.00;102264.09;4991878;28;20260;-79
2023/05/13 03:50:21;;;;;;;13.37;10.27;;;;;;;10.55;100.00;102267.47;4992842;28;20187;-80
2023/05/13 03:52:47;;;;;;;14.10;11.10;;;;;;;10.55;100.00;102265.78;5024184;28;20241;-79
2023/05/13 03:55:13;;;;;;;13.73;10.87;;;;;;;10.54;100.00;102264.03;5003826;28;20285;-77
2023/05/13 03:57:41;;;;;;;12.27;10.67;;;;;;;10.53;100.00;102264.84;5003372;28;20214;-79
2023/05/13 04:00:09;;;;;;;12.40;10.80;;;;;;;10.55;100.00;102267.47;5007685;28;20198;-81
2023/05/13 04:02:40;;;;;;;12.53;10.90;;;;;;;10.51;100.00;102266.44;5017798;28;20225;-79
2023/05/13 04:05:05;;;;;;;16.93;11.50;;;;;;;10.52;100.00;102269.91;5005001;28;20198;-80
2023/05/13 04:07:31;;;;;;;14.67;11.70;;;;;;;10.53;100.00;102267.41;4978486;28;20274;-79
2023/05/13 04:09:56;;;;;;;15.53;12.17;;;;;;;10.48;100.00;102268.91;5016469;28;20599;-79
2023/05/13 04:12:22;;;;;;;14.30;11.77;;;;;;;10.47;100.00;102273.97;5001940;28;21009;-78
2023/05/13 04:14:48;;;;;;;15.17;11.67;;;;;;;10.51;100.00;102271.56;5020255;28;20704;-80
2023/05/13 04:17:13;;;;;;;13.70;11.93;;;;;;;10.54;100.00;102268.25;4999630;28;20211;-79
2023/05/13 04:19:39;;;;;;;14.57;11.43;;;;;;;10.56;100.00;102267.53;5017564;28;20191;-79
2023/05/13 04:22:04;;;;;;;15.07;12.20;;;;;;;10.59;100.00;102272.78;5013722;28;20263;-80
2023/05/13 04:24:30;;;;;;;15.60;11.97;;;;;;;10.60;100.00;102273.66;5011153;28;20677;-79
2023/05/13 04:26:55;;;;;;;14.73;11.57;;;;;;;10.65;100.00;102272.19;5013608;28;20903;-79
2023/05/13 04:29:22;;;;;;;15.90;11.63;;;;;;;10.68;100.00;102275.72;4999096;28;20194;-80
2023/05/13 04:31:48;;;;;;;14.73;11.90;;;;;;;10.73;100.00;102278.50;5014188;28;20214;-79
2023/05/13 04:34:13;;;;;;;15.40;12.27;;;;;;;10.80;100.00;102283.06;4995005;28;20572;-78
2023/05/13 04:36:39;;;;;;;15.60;11.43;;;;;;;10.82;100.00;102284.88;4987127;28;20265;-78
2023/05/13 04:39:06;;;;;;;17.37;12.80;;;;;;;10.88;100.00;102282.53;4998820;28;20700;-76
2023/05/13 04:41:31;;;;;;;16.83;13.13;;;;;;;10.93;100.00;102281.03;4998626;28;20210;-76
2023/05/13 04:43:58;;;;;;;13.83;11.97;;;;;;;10.99;100.00;102285.56;5001256;28;20198;-76
2023/05/13 04:46:24;;;;;;;15.73;12.03;;;;;;;11.11;100.00;102284.34;5015477;28;20184;-78
2023/05/13 04:48:50;;;;;;;13.40;11.40;;;;;;;11.15;100.00;102285.38;5001581;28;20289;-77
2023/05/13 04:51:17;;;;;;;15.23;11.80;;;;;;;11.24;100.00;102289.16;4997747;28;20669;-77
2023/05/13 04:53:43;;;;;;;13.63;12.00;;;;;;;11.33;100.00;102288.66;5019317;28;20281;-78
2023/05/13 04:56:08;;;;;;;17.17;12.00;;;;;;;11.40;100.00;102282.94;5000841;28;20243;-79
2023/05/13 04:58:34;;;;;;;17.47;12.40;;;;;;;11.47;100.00;102290.94;4997901;28;20242;-77
2023/05/13 05:01:00;;;;;;;15.20;11.37;;;;;;;11.54;100.00;102290.38;5026114;28;20205;-77
2023/05/13 05:03:26;;;;;;;14.13;11.67;;;;;;;11.64;100.00;102283.91;5024940;28;20319;-77
2023/05/13 05:05:52;;;;;;;16.03;12.27;;;;;;;11.73;100.00;102295.44;5029219;28;20274;-78
2023/05/13 05:08:18;;;;;;;13.47;11.60;;;;;;;11.82;100.00;102292.31;5023467;28;20245;-79
2023/05/13 05:10:46;;;;;;;11.97;10.77;;;;;;;11.91;100.00;102287.53;5012870;28;20206;-78
2023/05/13 05:13:12;;;;;;;14.73;10.63;;;;;;;12.03;100.00;102288.84;5019262;28;20672;-78
2023/05/13 05:15:38;;;;;;;14.87;11.17;;;;;;;12.15;100.00;102291.88;5014000;28;20198;-78
2023/05/13 05:18:05;;;;;;;11.43;10.23;;;;;;;12.33;100.00;102281.38;5007618;28;20224;-80
2023/05/13 05:20:32;;;;;;;13.93;10.83;;;;;;;12.44;100.00;102288.63;5011384;28;20183;-79
2023/05/13 05:23:00;;;;;;;15.67;10.17;;;;;;;12.56;100.00;102283.94;5030299;28;20202;-78
2023/05/13 05:25:27;;;;;;;16.83;9.50;;;;;;;12.71;100.00;102273.28;5008160;28;20183;-79
2023/05/13 05:27:52;;;;;;;14.07;9.57;;;;;;;12.82;100.00;102272.81;5008014;28;20206;-78
2023/05/13 05:30:18;;;;;;;12.40;10.00;;;;;;;12.94;100.00;102260.38;5028224;28;20831;-77
2023/05/13 05:32:47;;;;;;;11.97;8.97;;;;;;;13.08;100.00;102253.13;5027383;28;20685;-79
2023/05/13 05:35:15;;;;;;;14.77;10.10;;;;;;;13.23;100.00;102256.19;5008992;28;20302;-79
2023/05/13 05:37:41;;;;;;;11.37;8.37;;;;;;;13.33;100.00;102258.22;5019544;28;20206;-80
2023/05/13 05:40:07;;;;;;;9.97;8.60;;;;;;;13.43;100.00;102220.75;5027524;28;20209;-78
2023/05/13 05:42:35;;;;;;;10.70;8.60;;;;;;;13.52;100.00;102206.47;5010801;28;20226;-78
2023/05/13 05:45:01;;;;;;;11.53;8.80;;;;;;;13.66;100.00;102194.88;5029161;28;20213;-77
2023/05/13 05:47:27;;;;;;;11.97;8.13;;;;;;;13.81;100.00;102187.56;5020485;28;20187;-80
2023/05/13 05:49:52;;;;;;;11.83;8.50;;;;;;;13.92;100.00;102183.63;5009179;28;20684;-79
2023/05/13 05:52:18;;;;;;;10.77;7.93;;;;;;;14.04;100.00;102183.06;5018833;28;20210;-78
2023/05/13 05:54:43;;;;;;;10.90;7.90;;;;;;;14.15;100.00;102166.19;5027367;28;20187;-78
2023/05/13 05:57:09;;;;;;;9.13;7.90;;;;;;;14.25;100.00;102163.03;5028804;28;20222;-79
2023/05/13 05:59:34;;;;;;;13.60;8.43;;;;;;;14.34;100.00;102142.66;5013229;28;20195;-78
2023/05/13 06:02:00;;;;;;;9.23;7.20;;;;;;;14.44;100.00;102122.31;5007827;28;20216;-80
2023/05/13 06:04:25;;;;;;;10.23;7.00;;;;;;;14.60;100.00;102123.56;5004529;28;20179;-79
2023/05/13 06:06:51;;;;;;;12.20;8.00;;;;;;;14.75;100.00;102126.47;4989432;28;20186;-79
2023/05/13 06:09:16;;;;;;;7.93;7.10;;;;;;;14.89;100.00;102114.78;5007242;28;20186;-79
2023/05/13 06:11:42;;;;;;;13.03;7.33;;;;;;;14.99;100.00;102140.81;5003089;28;20204;-80
2023/05/13 06:14:08;;;;;;;11.73;7.43;;;;;;;15.04;100.00;102089.28;5010267;28;20186;-79
2023/05/13 06:16:33;;;;;;;6.97;6.13;;;;;;;15.19;100.00;102054.38;5021261;28;20230;-79
2023/05/13 06:18:59;;;;;;;9.60;7.17;;;;;;;15.32;100.00;102050.31;5006919;28;20194;-76
2023/05/13 06:21:24;;;;;;;9.20;6.03;;;;;;;15.43;100.00;102029.06;5019247;28;20210;-79
2023/05/13 06:23:50;;;;;;;9.43;5.63;;;;;;;15.60;100.00;101986.34;4988340;28;20733;-79
2023/05/13 06:26:15;;;;;;;9.13;5.60;;;;;;;15.78;100.00;101991.81;5012742;28;20260;-79
2023/05/13 06:28:41;;;;;;;9.57;5.67;;;;;;;15.93;100.00;101940.41;5022280;28;20209;-78
2023/05/13 06:31:06;;;;;;;7.83;6.33;;;;;;;16.04;100.00;101963.81;5029798;28;20214;-78
2023/05/13 06:33:32;;;;;;;9.90;5.87;;;;;;;16.17;100.00;101926.97;5018852;28;20613;-79
2023/05/13 06:35:57;;;;;;;7.70;5.60;;;;;;;16.29;100.00;101942.63;5022537;28;20277;-79
2023/05/13 06:38:24;;;;;;;6.30;5.30;;;;;;;16.45;100.00;101898.09;5019006;28;20277;-79
2023/05/13 06:40:54;;;;;;;6.33;5.07;;;;;;;16.61;100.00;101867.25;5020823;28;20195;-79
2023/05/13 06:43:25;;;;;;;7.63;5.27;;;;;;;16.72;100.00;101860.47;5022781;28;20685;-78
2023/05/13 06:45:55;;;;;;;8.60;5.03;;;;;;;16.83;98.74;101863.19;5025983;28;20190;-79
2023/05/13 06:48:21;;;;;;;6.47;5.60;;;;;;;16.86;96.09;101838.19;5002918;28;20244;-79
2023/05/13 06:50:48;;;;;;;7.87;5.10;;;;;;;17.04;100.00;101881.53;5023822;28;20277;-79
2023/05/13 06:53:14;;;;;;;7.70;5.27;;;;;;;17.09;99.15;101870.34;5012293;28;20194;-79
2023/05/13 06:55:42;;;;;;;7.17;4.93;;;;;;;17.42;95.03;101834.44;5000323;28;20210;-77
2023/05/13 06:58:09;;;;;;;6.33;5.07;;;;;;;17.56;90.21;101800.84;5005932;28;20225;-79
2023/05/13 07:00:38;;;;;;;10.70;5.37;;;;;;;17.66;88.52;101800.03;5017102;28;20191;-79
2023/05/13 07:03:05;;;;;;;7.20;5.20;;;;;;;17.73;84.79;101771.56;5022095;28;20206;-78
2023/05/13 07:05:34;;;;;;;6.63;4.50;;;;;;;17.84;81.88;101750.91;5023435;28;20674;-78
2023/05/13 07:08:05;;;;;;;5.87;4.87;;;;;;;17.89;79.13;101739.72;5022572;28;20349;-78
2023/05/13 07:10:32;;;;;;;7.70;4.97;;;;;;;17.86;77.02;101733.63;4988513;28;20194;-78
2023/05/13 07:12:59;;;;;;;8.07;4.77;;;;;;;18.17;83.01;101771.75;5009068;28;20256;-78
2023/05/13 07:15:24;;;;;;;8.00;4.70;;;;;;;18.29;80.32;101777.00;5023402;28;20651;-79
2023/05/13 07:17:49;;;;;;;7.87;4.60;;;;;;;18.32;74.33;101759.72;5015298;28;20242;-78
2023/05/13 07:20:15;;;;;;;10.80;4.80;;;;;;;18.44;75.86;101762.38;5019795;28;20716;-79
2023/05/13 07:22:40;;;;;;;7.33;4.93;;;;;;;18.81;74.75;101779.75;5020909;28;20304;-78
2023/05/13 07:25:06;;;;;;;6.57;4.23;;;;;;;18.70;70.26;101794.41;5025203;28;20216;-78
2023/05/13 07:27:32;;;;;;;5.70;5.03;;;;;;;18.86;74.55;101836.84;5023404;28;20202;-77
2023/05/13 07:29:57;;;;;;;7.50;5.20;;;;;;;19.12;69.40;101807.44;5026759;28;20269;-79
2023/05/13 07:32:22;;;;;;;6.93;4.43;;;;;;;19.05;67.64;101802.22;5016084;22;20271;-77
2023/05/13 07:34:48;;;;;;;5.43;4.60;;;;;;;19.29;71.70;101828.22;4985546;28;20204;-78
2023/05/13 07:37:13;;;;;;;7.37;4.67;;;;;;;19.45;68.56;101812.66;4979585;28;20223;-78
2023/05/13 07:39:39;;;;;;;7.67;4.73;;;;;;;19.54;65.35;101798.78;4986628;28;20195;-79
2023/05/13 07:42:05;;;;;;;7.33;4.73;;;;;;;19.68;64.57;101804.81;4984866;28;20228;-77
2023/05/13 07:44:30;;;;;;;12.10;4.70;;;;;;;19.88;67.85;101842.91;4996431;28;20208;-77
2023/05/13 07:46:55;;;;;;;8.27;4.70;;;;;;;20.06;64.29;101808.16;4973390;28;20223;-79
2023/05/13 07:49:21;;;;;;;7.07;4.20;;;;;;;20.09;60.10;101789.97;4989189;28;20307;-79
2023/05/13 07:51:46;;;;;;;6.10;4.40;;;;;;;20.13;60.67;101802.09;4989822;28;20196;-78
2023/05/13 07:54:12;;;;;;;6.23;4.50;;;;;;;20.22;60.04;101809.88;4973260;28;20210;-78
2023/05/13 07:56:37;;;;;;;9.17;5.03;;;;;;;20.14;58.21;101798.63;4986681;28;20211;-78
2023/05/13 07:59:03;;;;;;;6.70;4.53;;;;;;;20.41;63.65;101855.75;4990656;28;20200;-78
2023/05/13 08:01:29;;;;;;;7.27;4.40;;;;;;;20.47;59.38;101814.06;4988686;28;20208;-78
2023/05/13 08:03:55;;;;;;;9.23;4.50;;;;;;;20.82;57.70;101805.16;4973638;28;20199;-78
2023/05/13 08:06:20;;;;;;;5.60;4.03;;;;;;;20.86;56.99;101801.66;4957902;28;20653;-78
2023/05/13 08:08:46;;;;;;;7.33;5.60;;;;;;;20.77;55.89;101812.16;4974630;28;20200;-78
2023/05/13 08:11:12;;;;;;;5.03;3.77;;;;;;;21.09;57.56;101851.06;4991930;28;20196;-79
2023/05/13 08:13:38;;;;;;;5.87;4.77;;;;;;;21.17;56.42;101837.06;4992138;28;20303;-78
2023/05/13 08:16:05;;;;;;;6.03;4.03;;;;;;;21.36;56.29;101848.19;4993025;28;20203;-78
2023/05/13 08:18:31;;;;;;;5.83;4.30;;;;;;;21.57;55.97;101851.50;4997024;28;20220;-79
2023/05/13 08:20:57;;;;;;;7.60;4.43;;;;;;;21.58;54.61;101853.22;4990779;28;20253;-78
2023/05/13 08:23:24;;;;;;;6.40;5.20;;;;;;;21.60;54.73;101874.06;4992438;28;20191;-79
2023/05/13 08:25:50;;;;;;;4.20;3.80;;;;;;;21.80;55.65;101886.09;4991581;28;20292;-80
2023/05/13 08:28:15;;;;;;;8.10;4.20;;;;;;;21.92;52.35;101854.63;4977930;28;20231;-79
2023/05/13 08:30:43;;;;;;;5.03;3.83;;;;;;;21.77;51.58;101865.22;5003293;28;20204;-80
2023/05/13 08:33:10;;;;;;;4.87;4.37;;;;;;;22.03;51.54;101873.63;4990339;28;20211;-76
2023/05/13 08:35:35;;;;;;;8.23;4.60;;;;;;;22.21;51.19;101870.81;4994086;28;20196;-79
2023/05/13 08:38:04;;;;;;;6.47;4.30;;;;;;;22.27;51.21;101873.38;4992337;28;20211;-80
2023/05/13 08:40:32;;;;;;;8.00;4.03;;;;;;;22.51;51.71;101884.44;5007809;28;20222;-78
2023/05/13 08:43:03;;;;;;;4.53;4.00;;;;;;;22.60;50.93;101872.09;4989734;28;20282;-83
2023/05/13 08:45:30;;;;;;;6.27;4.00;;;;;;;22.84;51.86;101890.06;4972857;28;20187;-80
2023/05/13 08:48:03;;;;;;;7.93;4.13;;;;;;;23.03;51.19;101878.47;4975887;28;20370;-79
2023/05/13 08:50:28;;;;;;;6.07;4.00;;;;;;;23.03;50.17;101888.06;5002470;28;20231;-79
2023/05/13 08:52:56;;;;;;;5.73;3.57;;;;;;;23.21;48.74;101870.34;4994156;28;20230;-79
2023/05/13 08:55:22;;;;;;;10.00;4.30;;;;;;;23.16;48.16;101866.06;4989256;28;20708;-79
2023/05/13 08:57:48;;;;;;;8.43;3.90;;;;;;;23.12;48.04;101865.28;4974573;28;20212;-81
2023/05/13 09:00:15;;;;;;;7.07;3.83;;;;;;;22.97;46.77;101867.25;4976554;28;20200;-81
2023/05/13 09:02:41;;;;;;;5.27;3.90;;;;;;;23.54;47.62;101898.59;4996457;28;20323;-81
2023/05/13 09:05:08;;;;;;;5.83;3.90;;;;;;;23.46;46.63;101882.16;4990561;28;20203;-79
2023/05/13 09:07:38;;;;;;;7.10;4.00;;;;;;;23.45;46.42;101890.03;4996458;28;20223;-80
2023/05/13 09:10:05;;;;;;;6.10;3.87;;;;;;;23.25;46.44;101886.88;4979488;28;20259;-81
2023/05/13 09:12:50;;;;;;;5.63;3.90;;;;;;;22.76;47.29;101927.63;4975757;28;20200;-78
2023/05/13 09:15:21;;;;;;;6.17;4.40;;;;;;;22.99;46.58;101910.78;4993608;28;20188;-79
2023/05/13 09:17:49;;;;;;;6.73;4.10;;;;;;;23.70;48.83;101948.88;4993343;28;20251;-79
2023/05/13 09:20:16;;;;;;;6.70;3.80;;;;;;;24.05;45.96;101888.97;4998387;28;20187;-79
2023/05/13 09:22:49;;;;;;;5.80;3.77;;;;;;;23.97;46.69;101920.53;4990273;28;20183;-79
2023/05/13 09:25:16;;;;;;;6.40;3.93;;;;;;;23.28;44.82;101905.13;4992532;28;20191;-79
2023/05/13 09:27:47;;;;;;;5.33;3.83;;;;;;;23.26;44.39;101901.69;4993431;28;20755;-79
2023/05/13 09:30:12;;;;;;;7.40;3.87;;;;;;;23.91;45.11;101943.34;4990660;28;20230;-79
2023/05/13 09:32:38;;;;;;;5.20;4.03;;;;;;;23.42;43.90;101909.25;4996100;28;20233;-78
2023/05/13 09:35:22;;;;;;;5.67;4.20;;;;;;;23.39;42.99;101908.44;4977949;28;20195;-80
2023/05/13 09:37:48;;;;;;;6.23;3.80;;;;;;;23.91;42.70;101909.31;4995476;28;20295;-79
2023/05/13 09:40:16;;;;;;;8.13;4.17;;;;;;;23.67;42.29;102030.91;5005510;28;20322;-79
2023/05/13 09:42:44;;;;;;;8.13;4.20;;;;;;;23.97;43.14;102077.59;4995225;28;20184;-78
2023/05/13 09:45:14;;;;;;;3.90;3.50;;;;;;;24.06;41.38;102042.53;4990279;28;20203;-79
2023/05/13 09:47:41;;;;;;;5.53;3.90;;;;;;;23.91;41.81;102059.38;4992663;28;20755;-78
2023/05/13 09:50:08;;;;;;;6.33;4.40;;;;;;;23.92;40.55;102057.59;4993324;28;20195;-77
2023/05/13 09:52:35;;;;;;;3.83;3.17;;;;;;;23.93;41.57;102069.78;4993013;28;20254;-77
2023/05/13 09:55:03;;;;;;;7.43;3.90;;;;;;;23.80;40.38;102039.47;4993021;28;20227;-77
2023/05/13 09:57:30;;;;;;;4.10;3.60;;;;;;;24.22;40.54;102050.09;4991209;28;20226;-79
2023/05/13 10:00:06;;;;;;;7.80;3.70;;;;;;;24.25;40.36;102042.19;4975807;28;20207;-79
2023/05/13 10:02:38;;;;;;;4.23;3.70;;;;;;;24.27;40.24;102043.03;4996938;28;20183;-78
2023/05/13 10:05:05;;;;;;;5.97;3.73;;;;;;;24.37;39.94;102048.97;4993109;28;20187;-82
2023/05/13 10:07:32;;;;;;;9.77;3.88;;;;;;;24.41;41.27;102063.75;4995576;28;20689;-79
2023/05/13 10:10:01;;;;;;;7.07;3.63;;;;;;;24.86;40.00;102037.56;4971948;28;20206;-78
2023/05/13 10:12:30;;;;;;;4.72;3.67;;;;;;;25.11;40.57;102049.31;4996432;28;20217;-79
2023/05/13 10:14:55;;;;;;;7.45;3.80;;;;;;;25.49;40.34;102048.47;4994905;28;20302;-79
2023/05/13 10:17:23;;;;;;;4.90;3.85;;;;;;;24.87;39.44;102039.28;4987913;28;20736;-77
2023/05/13 10:19:51;;;;;;;5.32;3.33;;;;;;;25.38;39.25;102042.63;4989149;28;20192;-78
2023/05/13 10:22:31;;;;;;;4.75;3.30;;;;;;;25.36;36.24;102020.78;4986079;28;20187;-76
2023/05/13 10:25:01;;;;;;;3.38;3.08;;;;;;;24.99;35.81;102011.97;4989933;28;20562;-78
2023/05/13 10:27:32;;;;;;;4.55;3.03;;;;;;;25.19;35.52;102020.28;5000571;28;20721;-77
2023/05/13 10:29:59;;;;;;;5.57;2.80;;;;;;;25.28;33.91;102010.47;4986101;28;20830;-77
2023/05/13 10:32:27;;;;;;;3.22;2.53;;;;;;;25.75;34.04;102043.50;4988467;28;20637;-77
2023/05/13 10:35:08;;;;;;;4.32;2.97;;;;;;;25.39;33.31;102024.22;4990985;28;20199;-79
2023/05/13 10:38:00;;;;;;;7.05;2.45;;;;;;;25.17;33.31;102035.16;5005179;28;20301;-82
2023/05/13 10:40:50;;;;;;;3.78;2.88;;;;;;;25.23;33.57;102030.66;4999942;28;20196;-80
2023/05/13 10:43:18;;;;;;;3.55;2.88;;;;;;;25.27;33.05;102032.34;4990498;28;20199;-80
2023/05/13 10:45:46;;;;;;;5.65;3.03;;;;;;;25.34;33.50;102041.84;4992146;28;20203;-81
2023/05/13 10:48:12;;;;;;;4.88;2.78;;;;;;;25.30;32.99;102031.44;4990547;28;20214;-81
2023/05/13 10:50:38;;;;;;;8.40;3.42;;;;;;;25.44;34.05;102069.59;4972057;28;20192;-83
2023/05/13 10:53:21;;;;;;;6.57;3.00;;;;;;;25.63;33.09;102041.16;4967124;28;20195;-81
2023/05/13 10:55:52;;;;;;;3.35;2.70;;;;;;;24.89;33.72;102034.91;4979300;28;20234;-80
2023/05/13 10:58:21;;;;;;;5.55;2.90;;;;;;;25.75;34.58;102068.00;4989772;28;20215;-82
2023/05/13 11:00:47;;;;;;;5.03;3.53;;;;;;;25.56;34.02;102039.59;4991627;28;20631;-79
2023/05/13 11:03:18;;;;;;;4.93;2.42;;;;;;;25.68;33.71;102024.41;4974105;28;20231;-80
2023/05/13 11:05:46;;;;;;;3.97;3.03;;;;;;;25.16;33.53;102033.44;4988583;28;20191;-79
2023/05/13 11:08:37;;;;;;;4.55;3.28;;;;;;;25.19;35.35;102070.97;4970300;28;20223;-82
2023/05/13 11:11:35;;;;;;;6.03;3.10;;;;;;;25.45;35.15;102068.69;4968560;28;20305;-80
2023/05/13 11:14:24;;;;;;;7.35;3.20;;;;;;;25.83;34.48;102039.78;4985756;28;20200;-81
2023/05/13 11:17:03;;;;;;;6.15;3.47;;;;;;;25.81;34.35;102033.72;4994711;28;20239;-78
2023/05/13 11:19:32;;;;;;;3.47;2.72;;;;;;;26.03;34.41;102027.09;4989551;28;20203;-81
2023/05/13 11:22:07;;;;;;;6.03;3.35;;;;;;;25.88;35.06;102034.44;4979788;28;20279;-79